Webcam

2020/04/06 19:50 EBBR 061950Z 25008KT CAVOK 14/08 Q1025 NOSIG

Webcam

--- Refresh now ---